sensor_id;sensor_type;location;lat;lon;timestamp;pressure;altitude;pressure_sealevel;temperature;humidity
46009;BME280;39597;51.438;7.006;2022-10-31T00:03:47;100625.75;;;15.15;88.80
46009;BME280;39597;51.438;7.006;2022-10-31T00:06:14;100627.44;;;15.19;87.73
46009;BME280;39597;51.438;7.006;2022-10-31T00:08:39;100627.25;;;15.12;88.26
46009;BME280;39597;51.438;7.006;2022-10-31T00:11:08;100629.47;;;15.54;85.83
46009;BME280;39597;51.438;7.006;2022-10-31T00:13:34;100623.47;;;15.32;86.94
46009;BME280;39597;51.438;7.006;2022-10-31T00:15:59;100626.19;;;15.32;86.76
46009;BME280;39597;51.438;7.006;2022-10-31T00:18:24;100622.22;;;15.30;87.35
46009;BME280;39597;51.438;7.006;2022-10-31T00:20:58;100619.28;;;15.23;87.46
46009;BME280;39597;51.438;7.006;2022-10-31T00:23:23;100624.69;;;15.19;87.65
46009;BME280;39597;51.438;7.006;2022-10-31T00:25:49;100616.09;;;15.37;86.65
46009;BME280;39597;51.438;7.006;2022-10-31T00:28:14;100620.97;;;15.27;87.83
46009;BME280;39597;51.438;7.006;2022-10-31T00:30:39;100614.50;;;15.04;88.81
46009;BME280;39597;51.438;7.006;2022-10-31T00:33:04;100617.94;;;15.01;88.76
46009;BME280;39597;51.438;7.006;2022-10-31T00:35:30;100623.97;;;15.22;87.24
46009;BME280;39597;51.438;7.006;2022-10-31T00:37:55;100623.06;;;14.87;89.53
46009;BME280;39597;51.438;7.006;2022-10-31T00:40:20;100618.53;;;14.79;89.80
46009;BME280;39597;51.438;7.006;2022-10-31T00:42:46;100623.09;;;14.74;90.34
46009;BME280;39597;51.438;7.006;2022-10-31T00:45:11;100624.84;;;14.95;89.77
46009;BME280;39597;51.438;7.006;2022-10-31T00:47:38;100629.28;;;15.15;87.60
46009;BME280;39597;51.438;7.006;2022-10-31T00:50:05;100620.97;;;15.12;88.11
46009;BME280;39597;51.438;7.006;2022-10-31T00:52:30;100634.22;;;15.10;88.64
46009;BME280;39597;51.438;7.006;2022-10-31T00:54:55;100624.25;;;15.17;87.69
46009;BME280;39597;51.438;7.006;2022-10-31T00:57:21;100635.00;;;15.10;88.58
46009;BME280;39597;51.438;7.006;2022-10-31T00:59:46;100627.59;;;14.95;89.23
46009;BME280;39597;51.438;7.006;2022-10-31T01:02:11;100630.94;;;15.04;88.94
46009;BME280;39597;51.438;7.006;2022-10-31T01:04:36;100638.13;;;15.09;88.72
46009;BME280;39597;51.438;7.006;2022-10-31T01:07:02;100630.59;;;15.05;88.90
46009;BME280;39597;51.438;7.006;2022-10-31T01:09:27;100625.63;;;15.11;88.14
46009;BME280;39597;51.438;7.006;2022-10-31T01:11:52;100639.13;;;15.48;87.24
46009;BME280;39597;51.438;7.006;2022-10-31T01:14:18;100633.53;;;15.13;88.04
46009;BME280;39597;51.438;7.006;2022-10-31T01:16:43;100625.13;;;15.37;87.62
46009;BME280;39597;51.438;7.006;2022-10-31T01:19:08;100636.63;;;15.43;86.73
46009;BME280;39597;51.438;7.006;2022-10-31T01:21:34;100635.59;;;15.31;87.62
46009;BME280;39597;51.438;7.006;2022-10-31T01:23:59;100630.25;;;15.39;87.33
46009;BME280;39597;51.438;7.006;2022-10-31T01:26:28;100642.31;;;15.34;87.63
46009;BME280;39597;51.438;7.006;2022-10-31T01:29:00;100637.59;;;15.19;87.74
46009;BME280;39597;51.438;7.006;2022-10-31T01:31:29;100641.47;;;15.02;89.06
46009;BME280;39597;51.438;7.006;2022-10-31T01:33:54;100633.97;;;14.99;89.12
46009;BME280;39597;51.438;7.006;2022-10-31T01:36:21;100646.06;;;14.98;89.19
46009;BME280;39597;51.438;7.006;2022-10-31T01:38:47;100645.47;;;14.77;90.00
46009;BME280;39597;51.438;7.006;2022-10-31T01:41:14;100638.25;;;14.56;91.10
46009;BME280;39597;51.438;7.006;2022-10-31T01:43:50;100635.44;;;14.81;90.39
46009;BME280;39597;51.438;7.006;2022-10-31T01:46:24;100636.78;;;15.02;89.05
46009;BME280;39597;51.438;7.006;2022-10-31T01:48:52;100632.38;;;14.98;89.14
46009;BME280;39597;51.438;7.006;2022-10-31T01:51:21;100626.69;;;15.07;88.75
46009;BME280;39597;51.438;7.006;2022-10-31T01:53:49;100624.50;;;14.96;88.72
46009;BME280;39597;51.438;7.006;2022-10-31T01:56:17;100630.63;;;14.78;89.69
46009;BME280;39597;51.438;7.006;2022-10-31T01:58:42;100630.56;;;14.90;89.41
46009;BME280;39597;51.438;7.006;2022-10-31T02:01:10;100626.75;;;14.94;89.16
46009;BME280;39597;51.438;7.006;2022-10-31T02:03:37;100614.13;;;14.90;89.46
46009;BME280;39597;51.438;7.006;2022-10-31T02:06:06;100610.50;;;14.86;89.18
46009;BME280;39597;51.438;7.006;2022-10-31T02:08:34;100613.84;;;14.79;89.81
46009;BME280;39597;51.438;7.006;2022-10-31T02:11:01;100604.38;;;14.77;90.18
46009;BME280;39597;51.438;7.006;2022-10-31T02:13:28;100613.06;;;14.79;89.58
46009;BME280;39597;51.438;7.006;2022-10-31T02:15:57;100604.50;;;14.52;90.75
46009;BME280;39597;51.438;7.006;2022-10-31T02:18:24;100593.44;;;14.49;91.48
46009;BME280;39597;51.438;7.006;2022-10-31T02:32:11;100601.31;;;14.50;91.68
46009;BME280;39597;51.438;7.006;2022-10-31T02:35:05;100602.69;;;14.44;91.52
46009;BME280;39597;51.438;7.006;2022-10-31T02:37:40;100613.59;;;14.56;90.75
46009;BME280;39597;51.438;7.006;2022-10-31T02:48:27;100613.97;;;14.14;93.38
46009;BME280;39597;51.438;7.006;2022-10-31T02:50:56;100612.81;;;14.15;93.23
46009;BME280;39597;51.438;7.006;2022-10-31T02:53:23;100614.41;;;14.17;93.88
46009;BME280;39597;51.438;7.006;2022-10-31T02:56:13;100605.13;;;14.21;93.19
46009;BME280;39597;51.438;7.006;2022-10-31T02:58:41;100602.09;;;14.51;92.29
46009;BME280;39597;51.438;7.006;2022-10-31T03:07:25;100619.25;;;14.48;91.52
46009;BME280;39597;51.438;7.006;2022-10-31T03:10:13;100607.94;;;14.37;92.09
46009;BME280;39597;51.438;7.006;2022-10-31T03:13:00;100623.59;;;14.36;92.22
46009;BME280;39597;51.438;7.006;2022-10-31T03:15:30;100622.72;;;14.20;92.51
46009;BME280;39597;51.438;7.006;2022-10-31T03:18:02;100611.91;;;14.11;93.35
46009;BME280;39597;51.438;7.006;2022-10-31T03:20:39;100612.44;;;14.29;92.80
46009;BME280;39597;51.438;7.006;2022-10-31T03:23:10;100619.69;;;13.97;93.79
46009;BME280;39597;51.438;7.006;2022-10-31T03:25:37;100623.34;;;13.89;94.60
46009;BME280;39597;51.438;7.006;2022-10-31T03:28:02;100617.31;;;13.83;94.97
46009;BME280;39597;51.438;7.006;2022-10-31T03:30:30;100625.59;;;14.11;93.90
46009;BME280;39597;51.438;7.006;2022-10-31T03:33:04;100614.84;;;14.19;93.17
46009;BME280;39597;51.438;7.006;2022-10-31T03:35:41;100609.53;;;13.98;93.90
46009;BME280;39597;51.438;7.006;2022-10-31T03:38:08;100613.78;;;13.83;94.63
46009;BME280;39597;51.438;7.006;2022-10-31T03:40:35;100617.88;;;13.77;95.34
46009;BME280;39597;51.438;7.006;2022-10-31T03:43:10;100614.03;;;13.66;95.72
46009;BME280;39597;51.438;7.006;2022-10-31T03:45:44;100597.72;;;13.57;96.36
46009;BME280;39597;51.438;7.006;2022-10-31T03:48:12;100614.28;;;13.48;96.76
46009;BME280;39597;51.438;7.006;2022-10-31T03:50:49;100616.41;;;13.43;96.87
46009;BME280;39597;51.438;7.006;2022-10-31T03:53:24;100616.75;;;13.41;97.59
46009;BME280;39597;51.438;7.006;2022-10-31T03:58:38;100610.50;;;13.41;97.08
46009;BME280;39597;51.438;7.006;2022-10-31T04:01:11;100614.16;;;13.33;97.17
46009;BME280;39597;51.438;7.006;2022-10-31T04:03:39;100618.19;;;13.14;97.51
46009;BME280;39597;51.438;7.006;2022-10-31T04:06:08;100614.63;;;13.02;99.06
46009;BME280;39597;51.438;7.006;2022-10-31T04:08:42;100619.75;;;13.03;99.46
46009;BME280;39597;51.438;7.006;2022-10-31T04:11:10;100618.50;;;13.01;99.28
46009;BME280;39597;51.438;7.006;2022-10-31T04:13:38;100615.44;;;13.02;99.65
46009;BME280;39597;51.438;7.006;2022-10-31T04:16:05;100606.44;;;13.02;99.37
46009;BME280;39597;51.438;7.006;2022-10-31T04:18:31;100607.00;;;13.07;99.05
46009;BME280;39597;51.438;7.006;2022-10-31T04:21:15;100607.00;;;13.07;99.21
46009;BME280;39597;51.438;7.006;2022-10-31T04:23:40;100612.47;;;13.07;99.08
46009;BME280;39597;51.438;7.006;2022-10-31T04:26:05;100610.53;;;13.08;99.36
46009;BME280;39597;51.438;7.006;2022-10-31T04:28:31;100608.09;;;13.39;97.48
46009;BME280;39597;51.438;7.006;2022-10-31T04:30:57;100600.81;;;13.55;95.99
46009;BME280;39597;51.438;7.006;2022-10-31T04:33:23;100607.19;;;13.35;96.57
46009;BME280;39597;51.438;7.006;2022-10-31T04:35:48;100609.50;;;13.45;96.42
46009;BME280;39597;51.438;7.006;2022-10-31T04:38:13;100609.47;;;13.33;96.63
46009;BME280;39597;51.438;7.006;2022-10-31T04:40:39;100607.50;;;13.21;97.63
46009;BME280;39597;51.438;7.006;2022-10-31T04:43:04;100602.59;;;13.15;97.97
46009;BME280;39597;51.438;7.006;2022-10-31T04:45:29;100611.81;;;13.10;97.86
46009;BME280;39597;51.438;7.006;2022-10-31T04:47:54;100601.28;;;13.45;96.31
46009;BME280;39597;51.438;7.006;2022-10-31T04:50:20;100600.22;;;13.38;96.30
46009;BME280;39597;51.438;7.006;2022-10-31T04:52:45;100591.44;;;13.20;96.73
46009;BME280;39597;51.438;7.006;2022-10-31T04:55:12;100591.41;;;13.08;97.71
46009;BME280;39597;51.438;7.006;2022-10-31T04:57:45;100592.44;;;13.03;97.85
46009;BME280;39597;51.438;7.006;2022-10-31T05:00:13;100594.38;;;13.15;97.96
46009;BME280;39597;51.438;7.006;2022-10-31T05:02:46;100594.28;;;13.23;97.11
46009;BME280;39597;51.438;7.006;2022-10-31T05:05:13;100591.91;;;13.22;96.89
46009;BME280;39597;51.438;7.006;2022-10-31T05:07:42;100593.25;;;13.16;97.24
46009;BME280;39597;51.438;7.006;2022-10-31T05:10:12;100584.59;;;13.14;97.42
46009;BME280;39597;51.438;7.006;2022-10-31T05:12:45;100583.91;;;13.17;97.35
46009;BME280;39597;51.438;7.006;2022-10-31T05:15:11;100585.31;;;13.23;97.04
46009;BME280;39597;51.438;7.006;2022-10-31T05:17:37;100584.03;;;13.20;96.91
46009;BME280;39597;51.438;7.006;2022-10-31T05:20:02;100583.78;;;13.13;97.47
46009;BME280;39597;51.438;7.006;2022-10-31T05:22:29;100577.06;;;13.11;97.72
46009;BME280;39597;51.438;7.006;2022-10-31T05:24:54;100570.56;;;13.15;97.59
46009;BME280;39597;51.438;7.006;2022-10-31T05:27:21;100570.47;;;13.12;97.23
46009;BME280;39597;51.438;7.006;2022-10-31T05:29:46;100564.06;;;13.08;97.40
46009;BME280;39597;51.438;7.006;2022-10-31T05:32:12;100572.84;;;13.13;97.11
46009;BME280;39597;51.438;7.006;2022-10-31T05:34:37;100565.34;;;13.10;97.38
46009;BME280;39597;51.438;7.006;2022-10-31T05:37:02;100568.16;;;13.02;97.71
46009;BME280;39597;51.438;7.006;2022-10-31T05:39:27;100564.63;;;13.01;97.89
46009;BME280;39597;51.438;7.006;2022-10-31T05:41:53;100565.53;;;13.05;97.60
46009;BME280;39597;51.438;7.006;2022-10-31T05:44:18;100572.13;;;12.92;98.14
46009;BME280;39597;51.438;7.006;2022-10-31T05:46:46;100573.88;;;12.97;97.57
46009;BME280;39597;51.438;7.006;2022-10-31T05:49:11;100564.50;;;12.85;98.19
46009;BME280;39597;51.438;7.006;2022-10-31T05:51:36;100570.53;;;12.79;98.66
46009;BME280;39597;51.438;7.006;2022-10-31T05:54:02;100571.19;;;12.76;98.83
46009;BME280;39597;51.438;7.006;2022-10-31T05:56:27;100563.13;;;12.79;98.61
46009;BME280;39597;51.438;7.006;2022-10-31T05:58:52;100565.13;;;12.70;99.21
46009;BME280;39597;51.438;7.006;2022-10-31T06:01:17;100565.03;;;12.67;99.58
46009;BME280;39597;51.438;7.006;2022-10-31T06:03:43;100558.88;;;12.70;99.52
46009;BME280;39597;51.438;7.006;2022-10-31T06:06:08;100565.81;;;12.67;99.92
46009;BME280;39597;51.438;7.006;2022-10-31T06:08:33;100555.56;;;12.64;99.96
46009;BME280;39597;51.438;7.006;2022-10-31T06:10:59;100557.63;;;12.67;99.88
46009;BME280;39597;51.438;7.006;2022-10-31T06:13:24;100560.91;;;12.60;100.00
46009;BME280;39597;51.438;7.006;2022-10-31T06:15:49;100556.25;;;12.61;100.00
46009;BME280;39597;51.438;7.006;2022-10-31T06:18:15;100551.94;;;12.60;100.00
46009;BME280;39597;51.438;7.006;2022-10-31T06:20:41;100565.72;;;12.63;100.00
46009;BME280;39597;51.438;7.006;2022-10-31T06:23:07;100566.28;;;12.69;100.00
46009;BME280;39597;51.438;7.006;2022-10-31T06:25:33;100561.94;;;12.68;99.86
46009;BME280;39597;51.438;7.006;2022-10-31T06:27:58;100563.44;;;12.65;100.00
46009;BME280;39597;51.438;7.006;2022-10-31T06:30:25;100557.41;;;12.72;99.50
46009;BME280;39597;51.438;7.006;2022-10-31T06:32:50;100562.88;;;12.72;99.54
46009;BME280;39597;51.438;7.006;2022-10-31T06:35:16;100562.97;;;12.63;100.00
46009;BME280;39597;51.438;7.006;2022-10-31T06:37:42;100565.25;;;12.61;99.97
46009;BME280;39597;51.438;7.006;2022-10-31T06:40:08;100564.91;;;12.63;100.00
46009;BME280;39597;51.438;7.006;2022-10-31T06:42:33;100571.41;;;12.71;100.00
46009;BME280;39597;51.438;7.006;2022-10-31T06:44:58;100558.88;;;12.70;99.76
46009;BME280;39597;51.438;7.006;2022-10-31T06:47:25;100551.13;;;12.72;99.79
46009;BME280;39597;51.438;7.006;2022-10-31T06:49:50;100561.94;;;12.68;99.75
46009;BME280;39597;51.438;7.006;2022-10-31T06:52:16;100568.72;;;12.83;99.25
46009;BME280;39597;51.438;7.006;2022-10-31T06:54:41;100570.41;;;12.87;99.09
46009;BME280;39597;51.438;7.006;2022-10-31T06:57:06;100573.94;;;12.88;99.15
46009;BME280;39597;51.438;7.006;2022-10-31T06:59:32;100580.25;;;13.01;98.48
46009;BME280;39597;51.438;7.006;2022-10-31T07:01:58;100581.16;;;13.05;97.95
46009;BME280;39597;51.438;7.006;2022-10-31T07:04:23;100580.47;;;13.08;97.68
46009;BME280;39597;51.438;7.006;2022-10-31T07:06:51;100585.81;;;13.04;97.79
46009;BME280;39597;51.438;7.006;2022-10-31T07:09:16;100577.06;;;12.99;98.26
46009;BME280;39597;51.438;7.006;2022-10-31T07:11:42;100584.78;;;12.97;98.21
46009;BME280;39597;51.438;7.006;2022-10-31T07:14:08;100589.59;;;13.00;98.49
46009;BME280;39597;51.438;7.006;2022-10-31T07:16:33;100576.38;;;13.02;97.93
46009;BME280;39597;51.438;7.006;2022-10-31T07:19:08;100579.44;;;13.00;98.19
46009;BME280;39597;51.438;7.006;2022-10-31T07:21:34;100584.13;;;13.00;98.35
46009;BME280;39597;51.438;7.006;2022-10-31T07:23:59;100577.97;;;13.03;98.30
46009;BME280;39597;51.438;7.006;2022-10-31T07:26:24;100584.91;;;13.00;98.61
46009;BME280;39597;51.438;7.006;2022-10-31T07:28:51;100581.50;;;13.03;98.26
46009;BME280;39597;51.438;7.006;2022-10-31T07:31:20;100581.84;;;13.14;97.91
46009;BME280;39597;51.438;7.006;2022-10-31T07:33:46;100586.31;;;13.18;97.50
46009;BME280;39597;51.438;7.006;2022-10-31T07:36:11;100578.81;;;13.28;97.32
46009;BME280;39597;51.438;7.006;2022-10-31T07:38:37;100584.16;;;13.24;97.35
46009;BME280;39597;51.438;7.006;2022-10-31T07:41:02;100583.16;;;13.29;97.21
46009;BME280;39597;51.438;7.006;2022-10-31T07:43:27;100562.06;;;13.29;97.00
46009;BME280;39597;51.438;7.006;2022-10-31T07:45:53;100577.56;;;13.37;97.00
46009;BME280;39597;51.438;7.006;2022-10-31T07:48:18;100592.81;;;13.38;96.55
46009;BME280;39597;51.438;7.006;2022-10-31T07:50:44;100578.13;;;13.31;96.44
46009;BME280;39597;51.438;7.006;2022-10-31T07:53:11;100581.53;;;13.40;97.24
46009;BME280;39597;51.438;7.006;2022-10-31T07:55:38;100571.63;;;13.47;96.10
46009;BME280;39597;51.438;7.006;2022-10-31T07:58:05;100571.94;;;13.58;96.25
46009;BME280;39597;51.438;7.006;2022-10-31T08:00:32;100575.53;;;13.46;95.64
46009;BME280;39597;51.438;7.006;2022-10-31T08:03:09;100580.06;;;13.42;96.37
46009;BME280;39597;51.438;7.006;2022-10-31T08:05:35;100588.63;;;13.29;96.58
46009;BME280;39597;51.438;7.006;2022-10-31T08:08:03;100584.84;;;13.21;96.84
46009;BME280;39597;51.438;7.006;2022-10-31T08:10:29;100595.19;;;13.15;97.33
46009;BME280;39597;51.438;7.006;2022-10-31T08:12:58;100594.97;;;13.20;97.50
46009;BME280;39597;51.438;7.006;2022-10-31T08:15:24;100595.09;;;13.24;96.88
46009;BME280;39597;51.438;7.006;2022-10-31T08:17:50;100596.47;;;13.18;96.63
46009;BME280;39597;51.438;7.006;2022-10-31T08:20:15;100593.00;;;13.09;96.89
46009;BME280;39597;51.438;7.006;2022-10-31T08:22:40;100588.91;;;13.03;97.15
46009;BME280;39597;51.438;7.006;2022-10-31T08:25:06;100591.97;;;13.01;97.42
46009;BME280;39597;51.438;7.006;2022-10-31T08:27:31;100593.22;;;13.04;97.25
46009;BME280;39597;51.438;7.006;2022-10-31T08:29:57;100587.88;;;13.07;97.71
46009;BME280;39597;51.438;7.006;2022-10-31T08:32:23;100596.88;;;13.08;97.50
46009;BME280;39597;51.438;7.006;2022-10-31T08:34:48;100591.00;;;13.18;97.54
46009;BME280;39597;51.438;7.006;2022-10-31T08:37:14;100592.72;;;13.35;97.30
46009;BME280;39597;51.438;7.006;2022-10-31T08:39:45;100581.88;;;13.50;96.09
46009;BME280;39597;51.438;7.006;2022-10-31T08:42:11;100578.22;;;13.59;95.25
46009;BME280;39597;51.438;7.006;2022-10-31T08:44:37;100576.72;;;13.73;94.40
46009;BME280;39597;51.438;7.006;2022-10-31T08:47:02;100573.38;;;13.92;93.83
46009;BME280;39597;51.438;7.006;2022-10-31T08:49:28;100578.94;;;14.08;92.46
46009;BME280;39597;51.438;7.006;2022-10-31T08:51:53;100577.56;;;14.14;92.14
46009;BME280;39597;51.438;7.006;2022-10-31T08:54:18;100566.00;;;14.21;91.63
46009;BME280;39597;51.438;7.006;2022-10-31T08:56:44;100564.72;;;14.30;91.65
46009;BME280;39597;51.438;7.006;2022-10-31T08:59:09;100561.47;;;14.40;90.93
46009;BME280;39597;51.438;7.006;2022-10-31T09:01:35;100557.66;;;14.57;90.82
46009;BME280;39597;51.438;7.006;2022-10-31T09:04:00;100552.38;;;14.64;89.86
46009;BME280;39597;51.438;7.006;2022-10-31T09:06:27;100555.28;;;14.71;89.45
46009;BME280;39597;51.438;7.006;2022-10-31T09:08:52;100548.41;;;14.62;89.14
46009;BME280;39597;51.438;7.006;2022-10-31T09:11:18;100555.63;;;14.54;89.57
46009;BME280;39597;51.438;7.006;2022-10-31T09:13:43;100548.97;;;14.55;89.67
46009;BME280;39597;51.438;7.006;2022-10-31T09:16:08;100555.13;;;14.80;88.49
46009;BME280;39597;51.438;7.006;2022-10-31T09:18:35;100554.59;;;14.90;88.45
46009;BME280;39597;51.438;7.006;2022-10-31T09:21:01;100550.97;;;15.02;87.81
46009;BME280;39597;51.438;7.006;2022-10-31T09:23:26;100545.50;;;15.02;87.64
46009;BME280;39597;51.438;7.006;2022-10-31T09:25:52;100546.66;;;15.17;87.45
46009;BME280;39597;51.438;7.006;2022-10-31T09:28:20;100541.31;;;15.24;87.16
46009;BME280;39597;51.438;7.006;2022-10-31T09:30:47;100549.13;;;15.22;87.53
46009;BME280;39597;51.438;7.006;2022-10-31T09:33:13;100543.28;;;15.23;87.27
46009;BME280;39597;51.438;7.006;2022-10-31T09:35:40;100537.53;;;15.28;87.12
46009;BME280;39597;51.438;7.006;2022-10-31T09:38:10;100523.59;;;15.37;86.24
46009;BME280;39597;51.438;7.006;2022-10-31T09:40:39;100527.88;;;15.34;86.09
46009;BME280;39597;51.438;7.006;2022-10-31T09:44:05;100528.03;;;15.42;85.82
46009;BME280;39597;51.438;7.006;2022-10-31T09:48:44;100514.38;;;15.61;85.64
46009;BME280;39597;51.438;7.006;2022-10-31T09:51:18;100512.34;;;15.42;84.91
46009;BME280;39597;51.438;7.006;2022-10-31T09:53:57;100512.09;;;15.47;85.82
46009;BME280;39597;51.438;7.006;2022-10-31T09:56:25;100510.16;;;15.48;85.16
46009;BME280;39597;51.438;7.006;2022-10-31T09:58:54;100515.19;;;15.46;85.43
46009;BME280;39597;51.438;7.006;2022-10-31T10:05:12;100503.16;;;15.34;85.79
46009;BME280;39597;51.438;7.006;2022-10-31T10:07:22;100496.31;;;15.44;85.66
46009;BME280;39597;51.438;7.006;2022-10-31T10:09:51;100494.19;;;15.53;85.30
46009;BME280;39597;51.438;7.006;2022-10-31T10:22:48;100500.88;;;15.91;84.02
46009;BME280;39597;51.438;7.006;2022-10-31T10:25:22;100494.31;;;15.95;83.13
46009;BME280;39597;51.438;7.006;2022-10-31T10:30:57;100485.94;;;15.88;83.30
46009;BME280;39597;51.438;7.006;2022-10-31T10:33:32;100481.00;;;15.78;83.32
46009;BME280;39597;51.438;7.006;2022-10-31T10:36:08;100470.63;;;15.68;83.95
46009;BME280;39597;51.438;7.006;2022-10-31T10:38:59;100467.75;;;15.80;84.00
46009;BME280;39597;51.438;7.006;2022-10-31T10:41:31;100468.88;;;15.99;82.77
46009;BME280;39597;51.438;7.006;2022-10-31T10:43:56;100463.94;;;16.08;82.82
46009;BME280;39597;51.438;7.006;2022-10-31T10:46:41;100456.81;;;16.03;82.33
46009;BME280;39597;51.438;7.006;2022-10-31T10:49:40;100456.50;;;16.08;82.55
46009;BME280;39597;51.438;7.006;2022-10-31T11:00:23;100437.22;;;16.05;82.71
46009;BME280;39597;51.438;7.006;2022-10-31T11:02:49;100427.38;;;16.04;82.95
46009;BME280;39597;51.438;7.006;2022-10-31T11:05:23;100429.41;;;16.07;82.74
46009;BME280;39597;51.438;7.006;2022-10-31T11:07:49;100421.59;;;16.09;83.64
46009;BME280;39597;51.438;7.006;2022-10-31T11:10:16;100411.03;;;16.11;82.93
46009;BME280;39597;51.438;7.006;2022-10-31T11:12:44;100395.84;;;16.17;82.86
46009;BME280;39597;51.438;7.006;2022-10-31T11:15:20;100396.34;;;16.22;82.39
46009;BME280;39597;51.438;7.006;2022-10-31T11:17:52;100395.38;;;16.34;82.12
46009;BME280;39597;51.438;7.006;2022-10-31T11:22:44;100384.75;;;16.33;82.17
46009;BME280;39597;51.438;7.006;2022-10-31T11:25:24;100380.03;;;16.33;82.47
46009;BME280;39597;51.438;7.006;2022-10-31T11:28:03;100370.66;;;16.61;81.07
46009;BME280;39597;51.438;7.006;2022-10-31T11:30:30;100373.91;;;16.66;81.20
46009;BME280;39597;51.438;7.006;2022-10-31T11:33:00;100378.19;;;16.64;80.98
46009;BME280;39597;51.438;7.006;2022-10-31T11:35:25;100382.81;;;16.82;80.82
46009;BME280;39597;51.438;7.006;2022-10-31T11:37:53;100380.53;;;16.88;80.05
46009;BME280;39597;51.438;7.006;2022-10-31T11:40:26;100371.22;;;16.96;79.97
46009;BME280;39597;51.438;7.006;2022-10-31T11:42:56;100369.88;;;17.13;79.59
46009;BME280;39597;51.438;7.006;2022-10-31T11:45:29;100365.13;;;17.10;79.08
46009;BME280;39597;51.438;7.006;2022-10-31T11:47:58;100359.16;;;17.04;79.05
46009;BME280;39597;51.438;7.006;2022-10-31T11:50:35;100344.19;;;17.02;79.94
46009;BME280;39597;51.438;7.006;2022-10-31T11:53:02;100342.66;;;17.04;79.42
46009;BME280;39597;51.438;7.006;2022-10-31T11:55:38;100340.06;;;17.15;79.31
46009;BME280;39597;51.438;7.006;2022-10-31T11:58:20;100337.59;;;17.10;79.24
46009;BME280;39597;51.438;7.006;2022-10-31T12:00:52;100341.16;;;17.10;79.75
46009;BME280;39597;51.438;7.006;2022-10-31T12:03:40;100339.69;;;17.17;79.36
46009;BME280;39597;51.438;7.006;2022-10-31T12:08:35;100336.25;;;17.27;78.95
46009;BME280;39597;51.438;7.006;2022-10-31T12:14:13;100320.53;;;17.27;78.67
46009;BME280;39597;51.438;7.006;2022-10-31T12:16:55;100313.91;;;17.32;78.31
46009;BME280;39597;51.438;7.006;2022-10-31T12:19:42;100298.22;;;17.36;78.23
46009;BME280;39597;51.438;7.006;2022-10-31T12:27:40;100296.03;;;17.49;77.31
46009;BME280;39597;51.438;7.006;2022-10-31T12:37:55;100287.81;;;17.56;77.09
46009;BME280;39597;51.438;7.006;2022-10-31T12:45:57;100269.78;;;17.62;76.89
46009;BME280;39597;51.438;7.006;2022-10-31T12:48:39;100254.59;;;17.75;76.48
46009;BME280;39597;51.438;7.006;2022-10-31T12:57:02;100232.41;;;18.01;75.13
46009;BME280;39597;51.438;7.006;2022-10-31T12:59:38;100231.78;;;18.22;74.70
46009;BME280;39597;51.438;7.006;2022-10-31T13:05:19;100218.56;;;18.53;73.29
46009;BME280;39597;51.438;7.006;2022-10-31T13:07:49;100212.59;;;18.44;72.52
46009;BME280;39597;51.438;7.006;2022-10-31T13:10:34;100209.84;;;18.44;73.13
46009;BME280;39597;51.438;7.006;2022-10-31T13:13:13;100207.66;;;18.74;71.91
46009;BME280;39597;51.438;7.006;2022-10-31T13:15:48;100205.69;;;18.75;71.77
46009;BME280;39597;51.438;7.006;2022-10-31T13:18:24;100197.41;;;18.71;71.36
46009;BME280;39597;51.438;7.006;2022-10-31T13:20:57;100198.59;;;18.74;70.46
46009;BME280;39597;51.438;7.006;2022-10-31T13:23:33;100188.75;;;18.69;70.10
46009;BME280;39597;51.438;7.006;2022-10-31T13:26:02;100171.03;;;18.74;69.96
46009;BME280;39597;51.438;7.006;2022-10-31T13:28:37;100156.84;;;18.75;69.64
46009;BME280;39597;51.438;7.006;2022-10-31T13:31:06;100161.94;;;18.70;69.96
46009;BME280;39597;51.438;7.006;2022-10-31T13:33:38;100158.81;;;18.78;69.90
46009;BME280;39597;51.438;7.006;2022-10-31T13:38:55;100138.75;;;18.85;68.86
46009;BME280;39597;51.438;7.006;2022-10-31T13:44:28;100124.56;;;18.93;68.93
46009;BME280;39597;51.438;7.006;2022-10-31T13:46:57;100125.78;;;19.00;68.71
46009;BME280;39597;51.438;7.006;2022-10-31T13:54:38;100117.09;;;18.90;65.71
46009;BME280;39597;51.438;7.006;2022-10-31T13:57:18;100122.59;;;18.98;64.86
46009;BME280;39597;51.438;7.006;2022-10-31T13:59:57;100125.41;;;19.05;64.91
46009;BME280;39597;51.438;7.006;2022-10-31T14:02:34;100113.56;;;19.08;64.03
46009;BME280;39597;51.438;7.006;2022-10-31T14:05:04;100113.59;;;19.15;64.28
46009;BME280;39597;51.438;7.006;2022-10-31T14:07:31;100109.25;;;19.17;64.75
46009;BME280;39597;51.438;7.006;2022-10-31T14:10:06;100094.28;;;19.22;63.99
46009;BME280;39597;51.438;7.006;2022-10-31T14:12:46;100095.84;;;19.16;63.72
46009;BME280;39597;51.438;7.006;2022-10-31T14:22:38;100076.91;;;19.07;62.37
46009;BME280;39597;51.438;7.006;2022-10-31T14:25:33;100076.94;;;19.18;62.31
46009;BME280;39597;51.438;7.006;2022-10-31T14:28:01;100065.09;;;19.10;61.79
46009;BME280;39597;51.438;7.006;2022-10-31T14:30:29;100065.88;;;19.11;61.08
46009;BME280;39597;51.438;7.006;2022-10-31T14:33:01;100076.13;;;19.07;60.81
46009;BME280;39597;51.438;7.006;2022-10-31T14:35:58;100069.03;;;19.09;60.83
46009;BME280;39597;51.438;7.006;2022-10-31T14:52:47;100043.81;;;19.00;60.04
46009;BME280;39597;51.438;7.006;2022-10-31T14:55:14;100031.19;;;18.99;61.23
46009;BME280;39597;51.438;7.006;2022-10-31T14:57:49;100036.31;;;19.04;60.26
46009;BME280;39597;51.438;7.006;2022-10-31T15:00:21;100022.91;;;19.10;60.41
46009;BME280;39597;51.438;7.006;2022-10-31T15:05:35;100018.16;;;19.07;60.44
46009;BME280;39597;51.438;7.006;2022-10-31T15:08:14;100004.78;;;19.05;60.34
46009;BME280;39597;51.438;7.006;2022-10-31T15:10:50;100015.44;;;19.00;60.89